sensor_id;sensor_type;location;lat;lon;timestamp;P1;durP1;ratioP1;P2;durP2;ratioP2
23737;SDS011;12049;51.068;3.688;2022-07-23T00:01:11;9.43;;;5.63;;
23737;SDS011;12049;51.068;3.688;2022-07-23T00:03:40;12.50;;;5.80;;
23737;SDS011;12049;51.068;3.688;2022-07-23T00:06:05;7.65;;;5.90;;
23737;SDS011;12049;51.068;3.688;2022-07-23T00:08:31;6.93;;;5.75;;
23737;SDS011;12049;51.068;3.688;2022-07-23T00:13:35;9.15;;;5.32;;
23737;SDS011;12049;51.068;3.688;2022-07-23T00:16:01;6.93;;;5.30;;
23737;SDS011;12049;51.068;3.688;2022-07-23T00:18:27;9.70;;;5.53;;
23737;SDS011;12049;51.068;3.688;2022-07-23T00:20:56;7.25;;;5.47;;
23737;SDS011;12049;51.068;3.688;2022-07-23T00:23:21;7.72;;;5.40;;
23737;SDS011;12049;51.068;3.688;2022-07-23T00:25:47;8.15;;;5.90;;
23737;SDS011;12049;51.068;3.688;2022-07-23T00:28:13;10.45;;;5.97;;
23737;SDS011;12049;51.068;3.688;2022-07-23T00:30:38;7.22;;;5.50;;
23737;SDS011;12049;51.068;3.688;2022-07-23T00:33:05;7.32;;;5.82;;
23737;SDS011;12049;51.068;3.688;2022-07-23T00:35:35;8.65;;;5.43;;
23737;SDS011;12049;51.068;3.688;2022-07-23T00:38:03;8.70;;;5.68;;
23737;SDS011;12049;51.068;3.688;2022-07-23T00:40:30;7.35;;;5.68;;
23737;SDS011;12049;51.068;3.688;2022-07-23T00:42:56;7.70;;;5.43;;
23737;SDS011;12049;51.068;3.688;2022-07-23T00:45:22;7.80;;;5.57;;
23737;SDS011;12049;51.068;3.688;2022-07-23T00:47:47;9.10;;;5.80;;
23737;SDS011;12049;51.068;3.688;2022-07-23T00:50:13;10.48;;;5.60;;
23737;SDS011;12049;51.068;3.688;2022-07-23T00:52:40;7.03;;;5.63;;
23737;SDS011;12049;51.068;3.688;2022-07-23T00:55:06;6.07;;;5.28;;
23737;SDS011;12049;51.068;3.688;2022-07-23T00:57:33;7.13;;;5.22;;
23737;SDS011;12049;51.068;3.688;2022-07-23T01:00:00;7.65;;;5.18;;
23737;SDS011;12049;51.068;3.688;2022-07-23T01:02:26;8.00;;;5.38;;
23737;SDS011;12049;51.068;3.688;2022-07-23T01:04:52;7.40;;;5.25;;
23737;SDS011;12049;51.068;3.688;2022-07-23T01:07:19;10.27;;;5.75;;
23737;SDS011;12049;51.068;3.688;2022-07-23T01:09:45;8.93;;;5.72;;
23737;SDS011;12049;51.068;3.688;2022-07-23T01:12:11;11.43;;;6.10;;
23737;SDS011;12049;51.068;3.688;2022-07-23T01:14:38;9.98;;;6.20;;
23737;SDS011;12049;51.068;3.688;2022-07-23T01:17:03;9.27;;;6.13;;
23737;SDS011;12049;51.068;3.688;2022-07-23T01:19:29;8.38;;;6.28;;
23737;SDS011;12049;51.068;3.688;2022-07-23T01:21:56;8.48;;;6.00;;
23737;SDS011;12049;51.068;3.688;2022-07-23T01:24:25;6.90;;;5.97;;
23737;SDS011;12049;51.068;3.688;2022-07-23T01:26:50;7.45;;;6.20;;
23737;SDS011;12049;51.068;3.688;2022-07-23T01:29:16;10.05;;;6.70;;
23737;SDS011;12049;51.068;3.688;2022-07-23T01:31:42;9.25;;;6.20;;
23737;SDS011;12049;51.068;3.688;2022-07-23T01:34:08;10.38;;;6.60;;
23737;SDS011;12049;51.068;3.688;2022-07-23T01:36:34;7.65;;;6.35;;
23737;SDS011;12049;51.068;3.688;2022-07-23T01:39:00;11.55;;;7.13;;
23737;SDS011;12049;51.068;3.688;2022-07-23T01:41:27;11.07;;;6.82;;
23737;SDS011;12049;51.068;3.688;2022-07-23T01:43:53;10.30;;;7.07;;
23737;SDS011;12049;51.068;3.688;2022-07-23T01:46:19;9.15;;;7.00;;
23737;SDS011;12049;51.068;3.688;2022-07-23T01:48:44;10.80;;;7.13;;
23737;SDS011;12049;51.068;3.688;2022-07-23T01:51:10;13.73;;;7.03;;
23737;SDS011;12049;51.068;3.688;2022-07-23T01:53:36;9.60;;;6.78;;
23737;SDS011;12049;51.068;3.688;2022-07-23T01:56:01;8.95;;;6.80;;
23737;SDS011;12049;51.068;3.688;2022-07-23T01:58:28;8.02;;;6.82;;
23737;SDS011;12049;51.068;3.688;2022-07-23T02:00:54;9.60;;;6.68;;
23737;SDS011;12049;51.068;3.688;2022-07-23T02:03:20;8.75;;;6.85;;
23737;SDS011;12049;51.068;3.688;2022-07-23T02:05:46;9.88;;;7.20;;
23737;SDS011;12049;51.068;3.688;2022-07-23T02:08:12;8.80;;;6.68;;
23737;SDS011;12049;51.068;3.688;2022-07-23T02:10:38;10.48;;;7.40;;
23737;SDS011;12049;51.068;3.688;2022-07-23T02:13:03;8.73;;;6.82;;
23737;SDS011;12049;51.068;3.688;2022-07-23T02:15:29;9.70;;;7.22;;
23737;SDS011;12049;51.068;3.688;2022-07-23T02:17:55;9.32;;;6.97;;
23737;SDS011;12049;51.068;3.688;2022-07-23T02:20:21;9.38;;;6.85;;
23737;SDS011;12049;51.068;3.688;2022-07-23T02:22:47;9.35;;;7.13;;
23737;SDS011;12049;51.068;3.688;2022-07-23T02:25:13;9.32;;;6.75;;
23737;SDS011;12049;51.068;3.688;2022-07-23T02:27:39;8.55;;;6.88;;
23737;SDS011;12049;51.068;3.688;2022-07-23T02:30:05;10.40;;;6.70;;
23737;SDS011;12049;51.068;3.688;2022-07-23T02:32:31;10.20;;;7.40;;
23737;SDS011;12049;51.068;3.688;2022-07-23T02:34:57;9.95;;;7.25;;
23737;SDS011;12049;51.068;3.688;2022-07-23T02:37:22;10.27;;;7.32;;
23737;SDS011;12049;51.068;3.688;2022-07-23T02:39:48;13.77;;;7.13;;
23737;SDS011;12049;51.068;3.688;2022-07-23T02:42:14;10.30;;;7.30;;
23737;SDS011;12049;51.068;3.688;2022-07-23T02:44:40;9.55;;;6.85;;
23737;SDS011;12049;51.068;3.688;2022-07-23T02:47:06;7.95;;;7.15;;
23737;SDS011;12049;51.068;3.688;2022-07-23T02:49:32;13.27;;;6.88;;
23737;SDS011;12049;51.068;3.688;2022-07-23T02:51:57;8.50;;;6.20;;
23737;SDS011;12049;51.068;3.688;2022-07-23T02:54:23;8.43;;;6.50;;
23737;SDS011;12049;51.068;3.688;2022-07-23T02:56:49;10.63;;;6.80;;
23737;SDS011;12049;51.068;3.688;2022-07-23T02:59:16;8.13;;;6.70;;
23737;SDS011;12049;51.068;3.688;2022-07-23T03:01:42;10.55;;;6.97;;
23737;SDS011;12049;51.068;3.688;2022-07-23T03:04:08;9.70;;;6.28;;
23737;SDS011;12049;51.068;3.688;2022-07-23T03:06:33;7.20;;;6.50;;
23737;SDS011;12049;51.068;3.688;2022-07-23T03:08:59;8.30;;;6.53;;
23737;SDS011;12049;51.068;3.688;2022-07-23T03:11:25;8.02;;;7.13;;
23737;SDS011;12049;51.068;3.688;2022-07-23T03:13:50;9.05;;;7.20;;
23737;SDS011;12049;51.068;3.688;2022-07-23T03:16:16;9.82;;;6.47;;
23737;SDS011;12049;51.068;3.688;2022-07-23T03:18:41;7.78;;;6.95;;
23737;SDS011;12049;51.068;3.688;2022-07-23T03:21:07;8.00;;;6.60;;
23737;SDS011;12049;51.068;3.688;2022-07-23T03:23:33;7.03;;;6.32;;
23737;SDS011;12049;51.068;3.688;2022-07-23T03:25:59;7.70;;;6.80;;
23737;SDS011;12049;51.068;3.688;2022-07-23T03:28:25;9.15;;;7.05;;
23737;SDS011;12049;51.068;3.688;2022-07-23T03:30:50;8.73;;;6.60;;
23737;SDS011;12049;51.068;3.688;2022-07-23T03:33:16;7.40;;;6.70;;
23737;SDS011;12049;51.068;3.688;2022-07-23T03:35:43;9.50;;;6.88;;
23737;SDS011;12049;51.068;3.688;2022-07-23T03:38:09;8.77;;;6.63;;
23737;SDS011;12049;51.068;3.688;2022-07-23T03:40:35;10.45;;;7.30;;
23737;SDS011;12049;51.068;3.688;2022-07-23T03:43:00;8.18;;;6.80;;
23737;SDS011;12049;51.068;3.688;2022-07-23T03:45:26;9.45;;;8.48;;
23737;SDS011;12049;51.068;3.688;2022-07-23T03:47:52;9.45;;;8.10;;
23737;SDS011;12049;51.068;3.688;2022-07-23T03:50:18;10.07;;;8.70;;
23737;SDS011;12049;51.068;3.688;2022-07-23T03:52:44;10.75;;;8.68;;
23737;SDS011;12049;51.068;3.688;2022-07-23T03:55:09;11.00;;;8.63;;
23737;SDS011;12049;51.068;3.688;2022-07-23T03:57:35;11.23;;;9.07;;
23737;SDS011;12049;51.068;3.688;2022-07-23T04:00:02;10.32;;;8.50;;
23737;SDS011;12049;51.068;3.688;2022-07-23T04:02:30;10.50;;;8.65;;
23737;SDS011;12049;51.068;3.688;2022-07-23T04:04:56;11.20;;;8.68;;
23737;SDS011;12049;51.068;3.688;2022-07-23T04:07:21;10.18;;;8.30;;
23737;SDS011;12049;51.068;3.688;2022-07-23T04:09:47;10.05;;;8.48;;
23737;SDS011;12049;51.068;3.688;2022-07-23T04:12:13;10.75;;;8.40;;
23737;SDS011;12049;51.068;3.688;2022-07-23T04:14:38;10.52;;;8.75;;
23737;SDS011;12049;51.068;3.688;2022-07-23T04:17:04;11.02;;;8.15;;
23737;SDS011;12049;51.068;3.688;2022-07-23T04:19:30;10.55;;;7.80;;
23737;SDS011;12049;51.068;3.688;2022-07-23T04:21:55;9.15;;;7.45;;
23737;SDS011;12049;51.068;3.688;2022-07-23T04:24:21;9.75;;;7.95;;
23737;SDS011;12049;51.068;3.688;2022-07-23T04:26:47;9.02;;;7.95;;
23737;SDS011;12049;51.068;3.688;2022-07-23T04:29:13;7.70;;;6.22;;
23737;SDS011;12049;51.068;3.688;2022-07-23T04:31:38;13.55;;;6.70;;
23737;SDS011;12049;51.068;3.688;2022-07-23T04:34:04;7.63;;;6.82;;
23737;SDS011;12049;51.068;3.688;2022-07-23T04:36:30;10.30;;;6.22;;
23737;SDS011;12049;51.068;3.688;2022-07-23T04:38:55;6.97;;;6.38;;
23737;SDS011;12049;51.068;3.688;2022-07-23T04:41:21;7.63;;;6.57;;
23737;SDS011;12049;51.068;3.688;2022-07-23T04:43:47;7.53;;;6.70;;
23737;SDS011;12049;51.068;3.688;2022-07-23T04:46:12;6.97;;;6.28;;
23737;SDS011;12049;51.068;3.688;2022-07-23T04:48:38;7.85;;;6.90;;
23737;SDS011;12049;51.068;3.688;2022-07-23T04:51:04;8.25;;;7.10;;
23737;SDS011;12049;51.068;3.688;2022-07-23T04:53:37;11.77;;;7.30;;
23737;SDS011;12049;51.068;3.688;2022-07-23T04:58:37;8.68;;;7.60;;
23737;SDS011;12049;51.068;3.688;2022-07-23T05:01:03;8.90;;;7.43;;
23737;SDS011;12049;51.068;3.688;2022-07-23T05:03:28;20.45;;;7.68;;
23737;SDS011;12049;51.068;3.688;2022-07-23T05:05:54;11.05;;;8.60;;
23737;SDS011;12049;51.068;3.688;2022-07-23T05:08:20;8.57;;;7.68;;
23737;SDS011;12049;51.068;3.688;2022-07-23T05:10:46;9.93;;;8.18;;
23737;SDS011;12049;51.068;3.688;2022-07-23T05:13:11;8.75;;;7.82;;
23737;SDS011;12049;51.068;3.688;2022-07-23T05:15:40;9.23;;;8.25;;
23737;SDS011;12049;51.068;3.688;2022-07-23T05:18:06;9.13;;;8.23;;
23737;SDS011;12049;51.068;3.688;2022-07-23T05:20:32;8.43;;;7.55;;
23737;SDS011;12049;51.068;3.688;2022-07-23T05:22:57;9.18;;;7.88;;
23737;SDS011;12049;51.068;3.688;2022-07-23T05:25:23;7.88;;;6.93;;
23737;SDS011;12049;51.068;3.688;2022-07-23T05:27:49;9.93;;;8.20;;
23737;SDS011;12049;51.068;3.688;2022-07-23T05:30:14;10.05;;;8.48;;
23737;SDS011;12049;51.068;3.688;2022-07-23T05:32:40;10.93;;;8.20;;
23737;SDS011;12049;51.068;3.688;2022-07-23T05:35:06;10.07;;;8.15;;
23737;SDS011;12049;51.068;3.688;2022-07-23T05:37:32;9.38;;;8.15;;
23737;SDS011;12049;51.068;3.688;2022-07-23T05:40:02;10.50;;;7.85;;
23737;SDS011;12049;51.068;3.688;2022-07-23T05:42:31;10.75;;;8.45;;
23737;SDS011;12049;51.068;3.688;2022-07-23T05:44:56;11.73;;;9.80;;
23737;SDS011;12049;51.068;3.688;2022-07-23T05:47:22;11.90;;;9.32;;
23737;SDS011;12049;51.068;3.688;2022-07-23T05:49:48;12.35;;;9.40;;
23737;SDS011;12049;51.068;3.688;2022-07-23T05:52:14;12.93;;;10.15;;
23737;SDS011;12049;51.068;3.688;2022-07-23T05:54:39;11.93;;;10.55;;
23737;SDS011;12049;51.068;3.688;2022-07-23T05:57:05;12.32;;;10.35;;
23737;SDS011;12049;51.068;3.688;2022-07-23T05:59:30;14.18;;;10.30;;
23737;SDS011;12049;51.068;3.688;2022-07-23T06:01:56;15.18;;;10.05;;
23737;SDS011;12049;51.068;3.688;2022-07-23T06:04:22;10.68;;;9.45;;
23737;SDS011;12049;51.068;3.688;2022-07-23T06:06:47;10.85;;;8.68;;
23737;SDS011;12049;51.068;3.688;2022-07-23T06:09:13;10.60;;;8.82;;
23737;SDS011;12049;51.068;3.688;2022-07-23T06:11:39;12.40;;;7.70;;
23737;SDS011;12049;51.068;3.688;2022-07-23T06:14:05;11.13;;;8.00;;
23737;SDS011;12049;51.068;3.688;2022-07-23T06:16:31;9.65;;;7.35;;
23737;SDS011;12049;51.068;3.688;2022-07-23T06:18:57;11.90;;;7.95;;
23737;SDS011;12049;51.068;3.688;2022-07-23T06:21:22;9.95;;;7.28;;
23737;SDS011;12049;51.068;3.688;2022-07-23T06:23:48;11.00;;;7.30;;
23737;SDS011;12049;51.068;3.688;2022-07-23T06:26:14;11.15;;;8.02;;
23737;SDS011;12049;51.068;3.688;2022-07-23T06:28:39;10.23;;;6.90;;
23737;SDS011;12049;51.068;3.688;2022-07-23T06:31:05;10.85;;;7.70;;
23737;SDS011;12049;51.068;3.688;2022-07-23T06:33:31;11.77;;;8.30;;
23737;SDS011;12049;51.068;3.688;2022-07-23T06:36:00;11.05;;;8.20;;
23737;SDS011;12049;51.068;3.688;2022-07-23T06:38:25;9.48;;;7.57;;
23737;SDS011;12049;51.068;3.688;2022-07-23T06:40:51;9.45;;;8.00;;
23737;SDS011;12049;51.068;3.688;2022-07-23T06:43:17;8.93;;;7.30;;
23737;SDS011;12049;51.068;3.688;2022-07-23T06:45:42;9.00;;;7.57;;
23737;SDS011;12049;51.068;3.688;2022-07-23T06:48:08;11.48;;;7.85;;
23737;SDS011;12049;51.068;3.688;2022-07-23T06:50:33;11.07;;;8.43;;
23737;SDS011;12049;51.068;3.688;2022-07-23T06:52:59;13.57;;;8.23;;
23737;SDS011;12049;51.068;3.688;2022-07-23T06:55:25;10.80;;;7.70;;
23737;SDS011;12049;51.068;3.688;2022-07-23T06:57:51;12.15;;;7.57;;
23737;SDS011;12049;51.068;3.688;2022-07-23T07:00:17;9.68;;;7.43;;
23737;SDS011;12049;51.068;3.688;2022-07-23T07:02:42;8.95;;;6.97;;
23737;SDS011;12049;51.068;3.688;2022-07-23T07:05:08;10.35;;;8.35;;
23737;SDS011;12049;51.068;3.688;2022-07-23T07:07:34;11.35;;;8.05;;
23737;SDS011;12049;51.068;3.688;2022-07-23T07:10:00;10.93;;;8.15;;
23737;SDS011;12049;51.068;3.688;2022-07-23T07:12:27;9.18;;;7.28;;
23737;SDS011;12049;51.068;3.688;2022-07-23T07:14:53;13.18;;;8.07;;
23737;SDS011;12049;51.068;3.688;2022-07-23T07:17:18;10.75;;;7.40;;
23737;SDS011;12049;51.068;3.688;2022-07-23T07:19:44;11.20;;;8.43;;
23737;SDS011;12049;51.068;3.688;2022-07-23T07:22:09;11.07;;;7.85;;
23737;SDS011;12049;51.068;3.688;2022-07-23T07:24:35;11.45;;;8.70;;
23737;SDS011;12049;51.068;3.688;2022-07-23T07:27:01;14.15;;;8.40;;
23737;SDS011;12049;51.068;3.688;2022-07-23T07:29:26;10.75;;;7.97;;
23737;SDS011;12049;51.068;3.688;2022-07-23T07:31:53;10.82;;;8.70;;
23737;SDS011;12049;51.068;3.688;2022-07-23T07:34:19;9.98;;;8.30;;
23737;SDS011;12049;51.068;3.688;2022-07-23T07:36:44;14.20;;;8.02;;
23737;SDS011;12049;51.068;3.688;2022-07-23T07:39:10;13.40;;;7.70;;
23737;SDS011;12049;51.068;3.688;2022-07-23T07:41:36;13.15;;;8.40;;
23737;SDS011;12049;51.068;3.688;2022-07-23T07:44:01;15.98;;;8.07;;
23737;SDS011;12049;51.068;3.688;2022-07-23T07:46:27;9.48;;;7.50;;
23737;SDS011;12049;51.068;3.688;2022-07-23T07:48:53;10.27;;;7.85;;
23737;SDS011;12049;51.068;3.688;2022-07-23T07:51:19;12.65;;;7.57;;
23737;SDS011;12049;51.068;3.688;2022-07-23T07:53:44;9.95;;;7.60;;
23737;SDS011;12049;51.068;3.688;2022-07-23T07:56:10;9.68;;;7.35;;
23737;SDS011;12049;51.068;3.688;2022-07-23T07:58:36;11.65;;;7.05;;
23737;SDS011;12049;51.068;3.688;2022-07-23T08:01:01;13.93;;;7.43;;
23737;SDS011;12049;51.068;3.688;2022-07-23T08:03:27;10.85;;;7.97;;
23737;SDS011;12049;51.068;3.688;2022-07-23T08:05:53;10.25;;;7.22;;
23737;SDS011;12049;51.068;3.688;2022-07-23T08:08:19;12.10;;;7.35;;
23737;SDS011;12049;51.068;3.688;2022-07-23T08:10:44;11.65;;;7.47;;
23737;SDS011;12049;51.068;3.688;2022-07-23T08:13:14;12.10;;;7.60;;
23737;SDS011;12049;51.068;3.688;2022-07-23T08:15:41;10.07;;;6.90;;
23737;SDS011;12049;51.068;3.688;2022-07-23T08:18:07;10.57;;;7.50;;
23737;SDS011;12049;51.068;3.688;2022-07-23T08:20:33;13.95;;;7.18;;
23737;SDS011;12049;51.068;3.688;2022-07-23T08:22:59;15.98;;;8.68;;
23737;SDS011;12049;51.068;3.688;2022-07-23T08:25:29;8.50;;;7.03;;
23737;SDS011;12049;51.068;3.688;2022-07-23T08:27:57;8.25;;;6.78;;
23737;SDS011;12049;51.068;3.688;2022-07-23T08:30:24;11.13;;;7.05;;
23737;SDS011;12049;51.068;3.688;2022-07-23T08:32:51;12.43;;;7.43;;
23737;SDS011;12049;51.068;3.688;2022-07-23T08:35:24;13.43;;;7.43;;
23737;SDS011;12049;51.068;3.688;2022-07-23T08:37:53;9.65;;;7.55;;
23737;SDS011;12049;51.068;3.688;2022-07-23T08:40:20;11.35;;;7.60;;
23737;SDS011;12049;51.068;3.688;2022-07-23T08:42:50;10.02;;;7.03;;
23737;SDS011;12049;51.068;3.688;2022-07-23T08:45:16;7.88;;;6.57;;
23737;SDS011;12049;51.068;3.688;2022-07-23T08:47:47;11.18;;;7.20;;
23737;SDS011;12049;51.068;3.688;2022-07-23T08:50:17;12.95;;;7.18;;
23737;SDS011;12049;51.068;3.688;2022-07-23T08:52:50;10.57;;;6.53;;
23737;SDS011;12049;51.068;3.688;2022-07-23T08:55:18;11.32;;;6.22;;
23737;SDS011;12049;51.068;3.688;2022-07-23T08:57:46;12.35;;;6.28;;
23737;SDS011;12049;51.068;3.688;2022-07-23T09:00:13;9.68;;;7.00;;
23737;SDS011;12049;51.068;3.688;2022-07-23T09:02:40;12.90;;;7.03;;
23737;SDS011;12049;51.068;3.688;2022-07-23T09:05:07;9.50;;;5.97;;
23737;SDS011;12049;51.068;3.688;2022-07-23T09:07:36;9.82;;;6.20;;
23737;SDS011;12049;51.068;3.688;2022-07-23T09:10:08;10.60;;;5.82;;
23737;SDS011;12049;51.068;3.688;2022-07-23T09:12:35;9.43;;;5.60;;
23737;SDS011;12049;51.068;3.688;2022-07-23T09:15:06;9.00;;;4.45;;
23737;SDS011;12049;51.068;3.688;2022-07-23T09:17:40;9.07;;;5.70;;
23737;SDS011;12049;51.068;3.688;2022-07-23T09:20:07;7.32;;;4.93;;
23737;SDS011;12049;51.068;3.688;2022-07-23T09:22:34;10.07;;;4.63;;
23737;SDS011;12049;51.068;3.688;2022-07-23T09:25:13;6.28;;;5.30;;
23737;SDS011;12049;51.068;3.688;2022-07-23T09:30:30;7.22;;;5.40;;
23737;SDS011;12049;51.068;3.688;2022-07-23T09:35:54;8.32;;;5.10;;
23737;SDS011;12049;51.068;3.688;2022-07-23T09:38:21;7.00;;;5.03;;
23737;SDS011;12049;51.068;3.688;2022-07-23T09:43:34;7.85;;;4.63;;
23737;SDS011;12049;51.068;3.688;2022-07-23T09:46:33;5.93;;;3.70;;
23737;SDS011;12049;51.068;3.688;2022-07-23T09:48:53;6.97;;;4.28;;
23737;SDS011;12049;51.068;3.688;2022-07-23T09:51:21;6.10;;;3.78;;
23737;SDS011;12049;51.068;3.688;2022-07-23T09:54:03;6.75;;;3.58;;
23737;SDS011;12049;51.068;3.688;2022-07-23T09:56:29;7.15;;;4.28;;
23737;SDS011;12049;51.068;3.688;2022-07-23T09:58:58;6.35;;;4.45;;
23737;SDS011;12049;51.068;3.688;2022-07-23T10:01:31;6.13;;;4.35;;
23737;SDS011;12049;51.068;3.688;2022-07-23T10:04:03;6.03;;;4.60;;
23737;SDS011;12049;51.068;3.688;2022-07-23T10:06:31;5.45;;;3.92;;
23737;SDS011;12049;51.068;3.688;2022-07-23T10:09:00;5.40;;;3.85;;
23737;SDS011;12049;51.068;3.688;2022-07-23T10:11:30;5.55;;;3.53;;
23737;SDS011;12049;51.068;3.688;2022-07-23T10:13:58;8.25;;;4.72;;
23737;SDS011;12049;51.068;3.688;2022-07-23T10:16:31;7.15;;;4.22;;
23737;SDS011;12049;51.068;3.688;2022-07-23T10:19:05;9.27;;;4.78;;
23737;SDS011;12049;51.068;3.688;2022-07-23T10:21:37;8.43;;;4.85;;
23737;SDS011;12049;51.068;3.688;2022-07-23T10:24:10;9.88;;;4.20;;
23737;SDS011;12049;51.068;3.688;2022-07-23T10:29:22;8.55;;;4.72;;
23737;SDS011;12049;51.068;3.688;2022-07-23T10:34:40;6.80;;;4.25;;
23737;SDS011;12049;51.068;3.688;2022-07-23T10:37:39;4.97;;;4.28;;
23737;SDS011;12049;51.068;3.688;2022-07-23T10:40:15;7.75;;;4.65;;
23737;SDS011;12049;51.068;3.688;2022-07-23T10:42:49;6.68;;;4.55;;
23737;SDS011;12049;51.068;3.688;2022-07-23T10:45:32;7.28;;;4.35;;
23737;SDS011;12049;51.068;3.688;2022-07-23T10:48:19;6.07;;;4.40;;
23737;SDS011;12049;51.068;3.688;2022-07-23T10:51:14;6.68;;;3.50;;
23737;SDS011;12049;51.068;3.688;2022-07-23T10:53:59;8.38;;;3.78;;
23737;SDS011;12049;51.068;3.688;2022-07-23T10:59:30;8.48;;;3.70;;
23737;SDS011;12049;51.068;3.688;2022-07-23T11:02:42;7.50;;;3.53;;
23737;SDS011;12049;51.068;3.688;2022-07-23T11:04:49;7.35;;;2.90;;
23737;SDS011;12049;51.068;3.688;2022-07-23T11:07:16;7.22;;;3.63;;
23737;SDS011;12049;51.068;3.688;2022-07-23T11:09:43;4.85;;;3.15;;
23737;SDS011;12049;51.068;3.688;2022-07-23T11:17:37;5.53;;;3.40;;
23737;SDS011;12049;51.068;3.688;2022-07-23T11:22:46;5.88;;;3.00;;
23737;SDS011;12049;51.068;3.688;2022-07-23T11:25:16;5.38;;;2.97;;
23737;SDS011;12049;51.068;3.688;2022-07-23T11:28:16;4.60;;;3.00;;
23737;SDS011;12049;51.068;3.688;2022-07-23T11:30:43;6.53;;;2.30;;
23737;SDS011;12049;51.068;3.688;2022-07-23T11:35:45;4.80;;;3.05;;
23737;SDS011;12049;51.068;3.688;2022-07-23T11:38:24;2.83;;;2.33;;
23737;SDS011;12049;51.068;3.688;2022-07-23T11:40:51;6.57;;;2.70;;
23737;SDS011;12049;51.068;3.688;2022-07-23T11:43:18;4.93;;;2.83;;
23737;SDS011;12049;51.068;3.688;2022-07-23T11:45:47;3.45;;;2.50;;
23737;SDS011;12049;51.068;3.688;2022-07-23T11:48:23;5.55;;;2.58;;
23737;SDS011;12049;51.068;3.688;2022-07-23T11:50:49;5.70;;;2.78;;
23737;SDS011;12049;51.068;3.688;2022-07-23T11:53:22;3.78;;;2.47;;
23737;SDS011;12049;51.068;3.688;2022-07-23T11:55:53;4.70;;;2.67;;
23737;SDS011;12049;51.068;3.688;2022-07-23T11:58:20;3.78;;;2.40;;
23737;SDS011;12049;51.068;3.688;2022-07-23T12:00:46;3.00;;;2.20;;
23737;SDS011;12049;51.068;3.688;2022-07-23T12:03:12;2.92;;;2.50;;
23737;SDS011;12049;51.068;3.688;2022-07-23T12:05:38;4.80;;;2.80;;
23737;SDS011;12049;51.068;3.688;2022-07-23T12:08:08;4.40;;;2.85;;
23737;SDS011;12049;51.068;3.688;2022-07-23T12:10:36;5.10;;;2.60;;
23737;SDS011;12049;51.068;3.688;2022-07-23T12:13:13;2.97;;;2.20;;
23737;SDS011;12049;51.068;3.688;2022-07-23T12:15:44;2.95;;;2.13;;
23737;SDS011;12049;51.068;3.688;2022-07-23T12:18:16;5.20;;;2.40;;
23737;SDS011;12049;51.068;3.688;2022-07-23T12:20:47;4.03;;;2.42;;
23737;SDS011;12049;51.068;3.688;2022-07-23T12:23:16;5.07;;;2.50;;
23737;SDS011;12049;51.068;3.688;2022-07-23T12:25:44;5.50;;;2.65;;
23737;SDS011;12049;51.068;3.688;2022-07-23T12:30:38;3.03;;;2.40;;
23737;SDS011;12049;51.068;3.688;2022-07-23T12:33:04;5.25;;;2.90;;
23737;SDS011;12049;51.068;3.688;2022-07-23T12:35:34;3.78;;;2.85;;
23737;SDS011;12049;51.068;3.688;2022-07-23T12:38:07;4.05;;;2.63;;
23737;SDS011;12049;51.068;3.688;2022-07-23T12:40:36;5.10;;;2.30;;
23737;SDS011;12049;51.068;3.688;2022-07-23T12:43:12;3.05;;;2.60;;
23737;SDS011;12049;51.068;3.688;2022-07-23T12:48:18;4.40;;;2.35;;
23737;SDS011;12049;51.068;3.688;2022-07-23T13:03:40;3.67;;;2.70;;
23737;SDS011;12049;51.068;3.688;2022-07-23T13:06:09;4.63;;;2.58;;
23737;SDS011;12049;51.068;3.688;2022-07-23T13:08:36;4.13;;;2.70;;
23737;SDS011;12049;51.068;3.688;2022-07-23T13:11:04;7.93;;;3.50;;
23737;SDS011;12049;51.068;3.688;2022-07-23T13:13:33;5.55;;;3.13;;
23737;SDS011;12049;51.068;3.688;2022-07-23T13:16:00;7.55;;;3.60;;
23737;SDS011;12049;51.068;3.688;2022-07-23T13:18:26;4.63;;;3.20;;
23737;SDS011;12049;51.068;3.688;2022-07-23T13:20:53;5.07;;;3.50;;
23737;SDS011;12049;51.068;3.688;2022-07-23T13:23:19;5.15;;;3.40;;
23737;SDS011;12049;51.068;3.688;2022-07-23T13:25:45;6.10;;;3.38;;
23737;SDS011;12049;51.068;3.688;2022-07-23T13:28:11;6.88;;;3.38;;
23737;SDS011;12049;51.068;3.688;2022-07-23T13:30:37;5.55;;;3.25;;
23737;SDS011;12049;51.068;3.688;2022-07-23T13:33:03;8.15;;;3.30;;
23737;SDS011;12049;51.068;3.688;2022-07-23T13:35:30;4.22;;;3.08;;
23737;SDS011;12049;51.068;3.688;2022-07-23T13:37:56;5.78;;;3.50;;
23737;SDS011;12049;51.068;3.688;2022-07-23T13:40:22;10.00;;;3.60;;
23737;SDS011;12049;51.068;3.688;2022-07-23T13:42:47;4.72;;;3.10;;
23737;SDS011;12049;51.068;3.688;2022-07-23T13:45:13;4.57;;;3.30;;
23737;SDS011;12049;51.068;3.688;2022-07-23T13:47:39;4.50;;;3.40;;
23737;SDS011;12049;51.068;3.688;2022-07-23T13:50:05;6.40;;;3.70;;
23737;SDS011;12049;51.068;3.688;2022-07-23T13:52:31;5.78;;;3.88;;
23737;SDS011;12049;51.068;3.688;2022-07-23T13:54:58;8.30;;;3.90;;
23737;SDS011;12049;51.068;3.688;2022-07-23T13:57:29;8.48;;;3.67;;
23737;SDS011;12049;51.068;3.688;2022-07-23T13:59:55;5.07;;;3.20;;
23737;SDS011;12049;51.068;3.688;2022-07-23T14:02:20;6.97;;;3.50;;
23737;SDS011;12049;51.068;3.688;2022-07-23T14:04:46;5.22;;;3.28;;
23737;SDS011;12049;51.068;3.688;2022-07-23T14:07:12;4.72;;;3.55;;
23737;SDS011;12049;51.068;3.688;2022-07-23T14:09:38;5.63;;;3.60;;
23737;SDS011;12049;51.068;3.688;2022-07-23T14:12:04;6.72;;;3.50;;
23737;SDS011;12049;51.068;3.688;2022-07-23T14:14:29;7.82;;;4.03;;
23737;SDS011;12049;51.068;3.688;2022-07-23T14:16:55;10.27;;;4.10;;
23737;SDS011;12049;51.068;3.688;2022-07-23T14:19:21;6.15;;;3.85;;
23737;SDS011;12049;51.068;3.688;2022-07-23T14:21:47;6.50;;;3.72;;
23737;SDS011;12049;51.068;3.688;2022-07-23T14:24:15;7.43;;;3.90;;
23737;SDS011;12049;51.068;3.688;2022-07-23T14:26:41;6.90;;;4.10;;
23737;SDS011;12049;51.068;3.688;2022-07-23T14:29:07;5.00;;;3.72;;
23737;SDS011;12049;51.068;3.688;2022-07-23T14:31:33;4.97;;;3.83;;
23737;SDS011;12049;51.068;3.688;2022-07-23T14:33:59;6.70;;;3.80;;
23737;SDS011;12049;51.068;3.688;2022-07-23T14:36:25;8.00;;;4.05;;
23737;SDS011;12049;51.068;3.688;2022-07-23T14:38:51;5.07;;;4.40;;
23737;SDS011;12049;51.068;3.688;2022-07-23T14:41:17;5.82;;;4.95;;
23737;SDS011;12049;51.068;3.688;2022-07-23T14:43:43;6.72;;;4.60;;
23737;SDS011;12049;51.068;3.688;2022-07-23T14:46:09;4.90;;;4.05;;
23737;SDS011;12049;51.068;3.688;2022-07-23T14:48:36;4.75;;;4.20;;
23737;SDS011;12049;51.068;3.688;2022-07-23T14:51:02;6.22;;;4.95;;
23737;SDS011;12049;51.068;3.688;2022-07-23T14:53:28;5.68;;;4.22;;
23737;SDS011;12049;51.068;3.688;2022-07-23T14:55:54;6.53;;;4.00;;
23737;SDS011;12049;51.068;3.688;2022-07-23T14:58:21;6.30;;;4.00;;
23737;SDS011;12049;51.068;3.688;2022-07-23T15:00:48;5.28;;;4.38;;
23737;SDS011;12049;51.068;3.688;2022-07-23T15:03:14;9.48;;;4.45;;
23737;SDS011;12049;51.068;3.688;2022-07-23T15:05:39;8.23;;;4.38;;
23737;SDS011;12049;51.068;3.688;2022-07-23T15:08:05;9.65;;;6.03;;
23737;SDS011;12049;51.068;3.688;2022-07-23T15:10:30;6.05;;;4.50;;
23737;SDS011;12049;51.068;3.688;2022-07-23T15:12:56;8.52;;;5.25;;
23737;SDS011;12049;51.068;3.688;2022-07-23T15:15:22;6.50;;;5.18;;
23737;SDS011;12049;51.068;3.688;2022-07-23T15:17:47;9.98;;;5.18;;
23737;SDS011;12049;51.068;3.688;2022-07-23T15:20:13;8.52;;;5.43;;
23737;SDS011;12049;51.068;3.688;2022-07-23T15:22:40;8.00;;;5.07;;
23737;SDS011;12049;51.068;3.688;2022-07-23T15:25:06;7.70;;;4.95;;
23737;SDS011;12049;51.068;3.688;2022-07-23T15:27:32;6.72;;;5.00;;
23737;SDS011;12049;51.068;3.688;2022-07-23T15:29:57;5.47;;;4.90;;
23737;SDS011;12049;51.068;3.688;2022-07-23T15:32:23;8.18;;;5.30;;
23737;SDS011;12049;51.068;3.688;2022-07-23T15:34:51;8.60;;;5.80;;